SAAJ/JNI METAR and TAF weather

Enter ICAO airport designator
Station Type Date Time Source
SAAJ METAR 2019/01/24 10:35 UTC NOAA

SAAJ 241035Z 05008KT 0500 FG OVC002 20/20 Q1014


Station Type Date Time Source
SAAJ Decoded METAR 2019/01/24 10:35 UTC NOAA

Junin Aerodrome, Argentina (SAAJ) 34-33S 060-55W 81M
Jan 24, 2019 - 05:35 AM EST / 2019.01.24 1035 UTC
Wind: from the NE (050 degrees) at 9 MPH (8 KT):0
Visibility: less than 1 mile:0
Sky conditions: overcast
Weather: fog
Temperature: 68 F (20 C)
Dew Point: 68 F (20 C)
Relative Humidity: 100%
Pressure (altimeter): 29.94 in. Hg (1014 hPa)
ob: SAAJ 241035Z 05008KT 0500 FG OVC002 20/20 Q1014
cycle: 10

Station Type Date Time Source
SAAJ TAF UTC NOAA

Error!


Example: see airport list